Time;durP1;ratioP1;P1;durP2;ratioP2;P2;SDS_P1;SDS_P2;PMS_P1;PMS_P2;Temp;Humidity;BMP_temperature;BMP_pressure;BME280_temperature;BME280_humidity;BME280_pressure;Samples;Min_cycle;Max_cycle;Signal;HPM_P1;HPM_P2
2022/01/14 00:01:22;;;;;;;22.55;6.20;;;;;;;-145.82;100.00;61645.16;4965157;28;20035;-69
2022/01/14 00:03:47;;;;;;;13.43;5.22;;;;;;;-145.82;100.00;61645.16;4964999;28;20410;-69
2022/01/14 00:06:13;;;;;;;13.43;5.20;;;;;;;-145.82;100.00;61645.16;4966143;28;20034;-70
2022/01/14 00:08:38;;;;;;;19.20;6.80;;;;;;;-145.82;100.00;61645.16;4965424;28;20041;-69
2022/01/14 00:11:14;;;;;;;22.10;8.00;;;;;;;-145.82;100.00;61645.16;4963935;28;20539;-69
2022/01/14 00:14:08;;;;;;;19.23;6.63;;;;;;;-145.82;100.00;61645.16;4963489;28;20049;-69
2022/01/14 00:16:25;;;;;;;18.27;5.70;;;;;;;-145.82;100.00;61645.16;4963984;28;20062;-69
2022/01/14 00:18:50;;;;;;;13.65;6.05;;;;;;;-145.82;100.00;61645.16;4964320;28;20030;-68
2022/01/14 00:21:16;;;;;;;12.70;5.22;;;;;;;-145.82;100.00;61645.16;4963433;28;20039;-70
2022/01/14 00:23:42;;;;;;;11.07;5.13;;;;;;;-145.82;100.00;61645.16;4963433;28;20053;-68
2022/01/14 00:32:05;;;;;;;8.57;3.42;;;;;;;-145.82;100.00;61645.16;4963858;28;20109;-69
2022/01/14 00:34:24;;;;;;;14.10;4.45;;;;;;;-145.82;100.00;61645.16;4965002;28;20046;-69
2022/01/14 00:36:50;;;;;;;9.93;3.65;;;;;;;-145.82;100.00;61645.16;4963533;28;20089;-69
2022/01/14 00:39:15;;;;;;;11.23;3.70;;;;;;;-145.82;100.00;61645.16;4965646;28;20043;-68
2022/01/14 00:41:43;;;;;;;8.88;3.38;;;;;;;-145.82;100.00;61645.16;4978679;28;20062;-71
2022/01/14 00:44:15;;;;;;;12.27;3.70;;;;;;;-145.82;100.00;61645.16;4963567;28;20078;-69
2022/01/14 00:46:44;;;;;;;9.73;4.30;;;;;;;-145.82;100.00;61645.16;4963899;28;20118;-69
2022/01/14 00:49:11;;;;;;;8.93;3.38;;;;;;;-145.82;100.00;61645.16;4963850;28;20149;-69
2022/01/14 00:51:36;;;;;;;10.48;3.85;;;;;;;-145.82;100.00;61645.16;4963270;28;20058;-68
2022/01/14 00:54:04;;;;;;;9.50;3.97;;;;;;;-145.82;100.00;61645.16;4962255;28;20031;-68
2022/01/14 00:56:33;;;;;;;11.88;3.72;;;;;;;-145.82;100.00;61645.16;4963930;28;20217;-68
2022/01/14 00:59:14;;;;;;;9.60;4.10;;;;;;;-145.82;100.00;61645.16;4962198;28;20031;-68
2022/01/14 01:01:48;;;;;;;10.68;4.35;;;;;;;-145.82;100.00;61645.16;4965847;28;20507;-68
2022/01/14 01:04:17;;;;;;;13.63;4.35;;;;;;;-145.82;100.00;61645.16;4965597;28;20556;-69
2022/01/14 01:06:43;;;;;;;13.13;3.97;;;;;;;-145.82;100.00;61645.16;4964007;28;20316;-69
2022/01/14 01:09:11;;;;;;;9.32;4.50;;;;;;;-145.82;100.00;61645.16;4961866;28;20050;-68
2022/01/14 01:12:29;;;;;;;12.35;4.40;;;;;;;-145.82;100.00;61645.16;4964060;28;20027;-70
2022/01/14 01:14:48;;;;;;;10.20;4.78;;;;;;;-145.82;100.00;61645.16;4962169;28;20057;-69
2022/01/14 01:17:14;;;;;;;17.33;5.85;;;;;;;-145.82;100.00;61645.16;4962814;28;20485;-71
2022/01/14 01:19:40;;;;;;;24.17;7.55;;;;;;;-145.82;100.00;61645.16;4962655;28;20046;-70
2022/01/14 01:22:06;;;;;;;29.38;10.00;;;;;;;-145.82;100.00;61645.16;4963394;28;20053;-70
2022/01/14 01:24:44;;;;;;;21.35;7.65;;;;;;;-145.82;100.00;61645.16;4977150;28;20031;-70
2022/01/14 01:27:09;;;;;;;17.15;7.30;;;;;;;-145.82;100.00;61645.16;4962830;28;20061;-68
2022/01/14 01:32:08;;;;;;;27.88;8.30;;;;;;;-145.82;100.00;61645.16;4964204;28;20379;-68
2022/01/14 01:34:34;;;;;;;16.77;7.03;;;;;;;-145.82;100.00;61645.16;4964082;28;20034;-69
2022/01/14 01:37:01;;;;;;;18.08;6.97;;;;;;;-145.82;100.00;61645.16;4962361;28;20038;-70
2022/01/14 01:39:29;;;;;;;15.70;7.55;;;;;;;-145.82;100.00;61645.16;4962955;28;20521;-69
2022/01/14 01:41:58;;;;;;;14.90;7.38;;;;;;;-145.82;100.00;61645.16;4961687;28;20045;-69
2022/01/14 01:44:24;;;;;;;16.60;6.97;;;;;;;-145.82;100.00;61645.16;4961347;28;20508;-68
2022/01/14 01:46:54;;;;;;;15.80;7.15;;;;;;;-145.82;100.00;61645.16;4961732;28;20057;-68
2022/01/14 01:49:22;;;;;;;22.65;6.97;;;;;;;-145.82;100.00;61645.16;4962417;28;20031;-69
2022/01/14 01:51:49;;;;;;;15.07;7.18;;;;;;;-145.82;100.00;61645.16;4961761;28;20079;-68
2022/01/14 01:54:19;;;;;;;16.42;7.07;;;;;;;-145.82;100.00;61645.16;4961185;28;20467;-69
2022/01/14 01:56:44;;;;;;;15.40;7.07;;;;;;;-145.82;100.00;61645.16;4963990;28;20147;-68
2022/01/14 01:59:10;;;;;;;16.75;6.63;;;;;;;-145.82;100.00;61645.16;4960397;28;20470;-68
2022/01/14 02:01:38;;;;;;;16.13;7.00;;;;;;;-145.82;100.00;61645.16;4961746;28;20559;-69
2022/01/14 02:04:04;;;;;;;19.88;7.60;;;;;;;-145.82;100.00;61645.16;4961704;28;20290;-71
2022/01/14 02:06:30;;;;;;;16.83;7.45;;;;;;;-145.82;100.00;61645.16;4960678;28;20046;-71
2022/01/14 02:08:55;;;;;;;17.05;8.13;;;;;;;-145.82;100.00;61645.16;4961476;28;20047;-68
2022/01/14 02:11:21;;;;;;;50.03;8.73;;;;;;;-145.82;100.00;61645.16;4961142;28;20308;-69
2022/01/14 02:13:49;;;;;;;20.92;8.27;;;;;;;-145.82;100.00;61645.16;4960965;28;20046;-68
2022/01/14 02:16:31;;;;;;;19.88;7.68;;;;;;;-145.82;100.00;61645.16;4960835;28;20066;-69
2022/01/14 02:19:17;;;;;;;18.27;8.88;;;;;;;-145.82;100.00;61645.16;4974707;28;20034;-71
2022/01/14 02:27:02;;;;;;;22.00;8.25;;;;;;;-145.82;100.00;61645.16;4960564;28;20035;-69
2022/01/14 02:29:28;;;;;;;17.63;8.45;;;;;;;-145.82;100.00;61645.16;4960418;28;20101;-69
2022/01/14 02:31:53;;;;;;;20.42;9.88;;;;;;;-145.82;100.00;61645.16;4961007;28;20059;-69
2022/01/14 02:34:19;;;;;;;22.13;10.23;;;;;;;-145.82;100.00;61645.16;4961275;28;20485;-69
2022/01/14 02:36:46;;;;;;;23.25;11.20;;;;;;;-145.82;100.00;61645.16;4961104;28;20473;-69
2022/01/14 02:39:14;;;;;;;23.73;11.63;;;;;;;-145.82;100.00;61645.16;4959877;28;20440;-69
2022/01/14 02:41:42;;;;;;;26.83;9.38;;;;;;;-145.82;100.00;61645.16;4962044;28;20125;-69
2022/01/14 02:44:10;;;;;;;22.17;9.05;;;;;;;-145.82;100.00;61645.16;4960973;28;20125;-69
2022/01/14 02:46:48;;;;;;;21.63;8.68;;;;;;;-145.82;100.00;61645.16;4960631;28;20121;-69
2022/01/14 02:49:14;;;;;;;22.88;9.85;;;;;;;-145.82;100.00;61645.16;4965228;28;20059;-68
2022/01/14 02:51:39;;;;;;;21.15;9.18;;;;;;;-145.82;100.00;61645.16;4965246;28;20533;-70
2022/01/14 02:54:20;;;;;;;25.35;10.15;;;;;;;-145.82;100.00;61645.16;4964427;28;20039;-68
2022/01/14 02:56:49;;;;;;;29.40;12.05;;;;;;;-145.82;100.00;61645.16;4964842;28;20031;-69
2022/01/14 02:59:20;;;;;;;23.48;11.23;;;;;;;-145.82;100.00;61645.16;4963860;28;20039;-69
2022/01/14 03:01:47;;;;;;;29.23;15.23;;;;;;;-145.82;100.00;61645.16;4963923;28;20049;-70
2022/01/14 03:04:20;;;;;;;24.77;11.98;;;;;;;-145.82;100.00;61645.16;4963709;28;20050;-69
2022/01/14 03:06:46;;;;;;;27.95;13.48;;;;;;;-145.82;100.00;61645.16;4966273;28;20110;-71
2022/01/14 03:09:12;;;;;;;25.88;12.98;;;;;;;-145.82;100.00;61645.16;4964089;28;20055;-71
2022/01/14 03:11:48;;;;;;;24.52;11.77;;;;;;;-145.82;100.00;61645.16;4966500;28;20047;-69
2022/01/14 03:14:21;;;;;;;23.45;9.60;;;;;;;-145.82;100.00;61645.16;4965853;28;20035;-69
2022/01/14 03:16:48;;;;;;;20.92;10.02;;;;;;;-145.82;100.00;61645.16;4966831;28;20031;-71
2022/01/14 03:19:19;;;;;;;19.58;9.02;;;;;;;-145.82;100.00;61645.16;4967697;28;20047;-69
2022/01/14 03:21:45;;;;;;;24.45;10.20;;;;;;;-145.82;100.00;61645.16;4965323;28;20769;-69
2022/01/14 03:25:35;;;;;;;18.70;8.82;;;;;;;-145.82;100.00;61645.16;4963009;28;20081;-69
2022/01/14 03:27:07;;;;;;;16.92;9.20;;;;;;;-145.82;100.00;61645.16;4963102;28;20498;-68
2022/01/14 03:29:32;;;;;;;28.00;9.50;;;;;;;-145.82;100.00;61645.16;4963473;28;20062;-69
2022/01/14 03:31:58;;;;;;;15.95;7.03;;;;;;;-145.82;100.00;61645.16;4962066;28;20418;-69
2022/01/14 03:34:24;;;;;;;20.67;9.10;;;;;;;-145.82;100.00;61645.16;4965210;28;20042;-69
2022/01/14 03:36:50;;;;;;;21.27;9.77;;;;;;;-145.82;100.00;61645.16;4964198;28;20100;-70
2022/01/14 03:39:18;;;;;;;23.65;10.15;;;;;;;-145.82;100.00;61645.16;4964116;28;20046;-69
2022/01/14 03:41:44;;;;;;;21.77;9.27;;;;;;;-145.82;100.00;61645.16;4963129;28;20558;-69
2022/01/14 03:44:10;;;;;;;19.38;9.57;;;;;;;-145.82;100.00;61645.16;4963100;28;20097;-68
2022/01/14 03:46:36;;;;;;;23.27;9.27;;;;;;;-145.82;100.00;61645.16;4962653;28;20489;-68
2022/01/14 03:49:01;;;;;;;25.60;9.73;;;;;;;-145.82;100.00;61645.16;4964244;28;20439;-68
2022/01/14 03:51:28;;;;;;;19.88;9.88;;;;;;;-145.82;100.00;61645.16;4962396;28;20026;-70
2022/01/14 03:53:54;;;;;;;22.05;9.98;;;;;;;-145.82;100.00;61645.16;4962391;28;20393;-69
2022/01/14 03:56:19;;;;;;;23.02;9.32;;;;;;;-145.82;100.00;61645.16;4964631;28;20031;-69
2022/01/14 03:58:45;;;;;;;27.55;8.85;;;;;;;-145.82;100.00;61645.16;4962323;28;20373;-68
2022/01/14 04:01:12;;;;;;;27.13;10.23;;;;;;;-145.82;100.00;61645.16;4962884;28;20493;-71
2022/01/14 04:03:40;;;;;;;21.58;9.93;;;;;;;-145.82;100.00;61645.16;4964306;28;20470;-68
2022/01/14 04:06:06;;;;;;;18.80;9.68;;;;;;;-145.82;100.00;61645.16;4964338;28;20042;-68
2022/01/14 04:08:32;;;;;;;20.70;10.20;;;;;;;-145.82;100.00;61645.16;4962235;28;20453;-68
2022/01/14 04:11:00;;;;;;;24.35;10.50;;;;;;;-145.82;100.00;61645.16;4963152;28;20039;-69
2022/01/14 04:13:39;;;;;;;22.35;9.57;;;;;;;-145.82;100.00;61645.16;4961730;28;20043;-69
2022/01/14 04:16:06;;;;;;;18.38;9.70;;;;;;;-145.82;100.00;61645.16;4961773;28;20045;-68
2022/01/14 04:18:31;;;;;;;20.58;9.32;;;;;;;-145.82;100.00;61645.16;4963065;28;20034;-70
2022/01/14 04:20:57;;;;;;;21.38;9.20;;;;;;;-145.82;100.00;61645.16;4963302;28;20448;-68
2022/01/14 04:23:23;;;;;;;23.80;9.98;;;;;;;-145.82;100.00;61645.16;4963609;28;20438;-68
2022/01/14 04:25:54;;;;;;;20.73;9.73;;;;;;;-145.82;100.00;61645.16;4964912;28;20469;-68
2022/01/14 04:28:21;;;;;;;23.80;10.40;;;;;;;-145.82;100.00;61645.16;4962100;28;20141;-68
2022/01/14 04:30:48;;;;;;;23.65;10.02;;;;;;;-145.82;100.00;61645.16;4961843;28;20046;-69
2022/01/14 04:33:14;;;;;;;23.15;9.18;;;;;;;-145.82;100.00;61645.16;4962409;28;20468;-70
2022/01/14 04:35:40;;;;;;;22.30;9.95;;;;;;;-145.82;100.00;61645.16;4963330;28;20039;-69
2022/01/14 04:38:05;;;;;;;23.95;10.00;;;;;;;-145.82;100.00;61645.16;4961038;28;20030;-68
2022/01/14 04:40:31;;;;;;;20.33;9.25;;;;;;;-145.82;100.00;61645.16;4962880;28;20066;-68
2022/01/14 04:42:59;;;;;;;21.65;9.10;;;;;;;-145.82;100.00;61645.16;4960508;28;20066;-69
2022/01/14 04:48:00;;;;;;;22.98;8.90;;;;;;;-145.82;100.00;61645.16;4961656;28;20440;-71
2022/01/14 04:50:25;;;;;;;17.50;8.48;;;;;;;-145.82;100.00;61645.16;4963516;28;20039;-69
2022/01/14 04:52:51;;;;;;;22.95;8.82;;;;;;;-145.82;100.00;61645.16;4962058;28;20374;-68
2022/01/14 04:55:25;;;;;;;17.80;8.68;;;;;;;-145.82;100.00;61645.16;4962200;28;20344;-69
2022/01/14 04:57:53;;;;;;;19.65;8.90;;;;;;;-145.82;100.00;61645.16;4961905;28;20039;-68
2022/01/14 05:00:22;;;;;;;20.63;9.02;;;;;;;-145.82;100.00;61645.16;4962625;28;20478;-69
2022/01/14 05:02:48;;;;;;;16.55;8.10;;;;;;;-145.82;100.00;61645.16;4962344;28;20039;-69
2022/01/14 05:05:19;;;;;;;18.23;8.82;;;;;;;-145.82;100.00;61645.16;4961791;28;20041;-71
2022/01/14 05:07:46;;;;;;;24.13;9.35;;;;;;;-145.82;100.00;61645.16;4959288;28;20169;-71
2022/01/14 05:10:21;;;;;;;21.63;9.38;;;;;;;-145.82;100.00;61645.16;4961635;28;20035;-70
2022/01/14 05:12:47;;;;;;;23.13;9.00;;;;;;;-145.82;100.00;61645.16;4962711;28;20042;-70
2022/01/14 05:15:14;;;;;;;19.77;8.70;;;;;;;-145.82;100.00;61645.16;4961543;28;20042;-70
2022/01/14 05:17:40;;;;;;;22.33;8.85;;;;;;;-145.82;100.00;61645.16;4961603;28;20551;-68
2022/01/14 05:20:06;;;;;;;18.40;9.93;;;;;;;-145.82;100.00;61645.16;4978148;28;20109;-71
2022/01/14 05:22:31;;;;;;;21.20;10.40;;;;;;;-145.82;100.00;61645.16;4962832;28;20038;-68
2022/01/14 05:24:57;;;;;;;22.45;9.93;;;;;;;-145.82;100.00;61645.16;4961532;28;20045;-68
2022/01/14 05:27:23;;;;;;;24.02;10.10;;;;;;;-145.82;100.00;61645.16;4961448;28;20031;-70
2022/01/14 05:29:49;;;;;;;26.38;10.40;;;;;;;-145.82;100.00;61645.16;4961083;28;20046;-70
2022/01/14 05:32:15;;;;;;;24.73;10.95;;;;;;;-145.82;100.00;61645.16;4959328;28;20725;-70
2022/01/14 05:34:43;;;;;;;19.23;10.13;;;;;;;-145.82;100.00;61645.16;4961759;28;20440;-71
2022/01/14 05:37:09;;;;;;;30.77;10.88;;;;;;;-145.82;100.00;61645.16;4957486;28;20142;-71
2022/01/14 05:39:35;;;;;;;24.73;11.93;;;;;;;-145.82;100.00;61645.16;4965035;28;20047;-70
2022/01/14 05:42:02;;;;;;;30.05;13.48;;;;;;;-145.82;100.00;61645.16;4961378;28;20045;-68
2022/01/14 05:44:29;;;;;;;23.92;11.65;;;;;;;-145.82;100.00;61645.16;4961290;28;20037;-68
2022/01/14 05:46:56;;;;;;;25.65;11.57;;;;;;;-145.82;100.00;61645.16;4961244;28;20038;-69
2022/01/14 05:49:23;;;;;;;25.83;11.35;;;;;;;-145.82;100.00;61645.16;4963116;28;20038;-70
2022/01/14 05:51:49;;;;;;;22.33;10.88;;;;;;;-145.82;100.00;61645.16;4962943;28;20524;-68
2022/01/14 05:54:15;;;;;;;21.48;10.57;;;;;;;-145.82;100.00;61645.16;4962058;28;20035;-69
2022/01/14 05:56:43;;;;;;;21.52;10.82;;;;;;;-145.82;100.00;61645.16;4963018;28;20082;-70
2022/01/14 05:59:10;;;;;;;26.17;11.23;;;;;;;-145.82;100.00;61645.16;4961277;28;20284;-70
2022/01/14 06:01:36;;;;;;;28.70;10.02;;;;;;;-145.82;100.00;61645.16;4962736;28;20039;-69
2022/01/14 06:04:03;;;;;;;21.98;10.30;;;;;;;-145.82;100.00;61645.16;4961236;28;20060;-69
2022/01/14 06:06:30;;;;;;;21.65;9.88;;;;;;;-145.82;100.00;61645.16;4962268;28;20038;-69
2022/01/14 06:08:56;;;;;;;24.35;10.80;;;;;;;-145.82;100.00;61645.16;4965021;28;20067;-69
2022/01/14 06:11:22;;;;;;;26.38;11.15;;;;;;;-145.82;100.00;61645.16;4962535;28;20101;-70
2022/01/14 06:13:47;;;;;;;16.83;8.60;;;;;;;-145.82;100.00;61645.16;4961432;28;20047;-71
2022/01/14 06:16:13;;;;;;;18.90;9.82;;;;;;;-145.82;100.00;61645.16;4962689;28;20043;-71
2022/01/14 06:18:39;;;;;;;19.10;9.40;;;;;;;-145.82;100.00;61645.16;4961856;28;20444;-69
2022/01/14 06:21:05;;;;;;;26.85;11.13;;;;;;;-145.82;100.00;61645.16;4962990;28;20034;-69
2022/01/14 06:23:31;;;;;;;24.10;11.40;;;;;;;-145.82;100.00;61645.16;4967566;28;20054;-70
2022/01/14 06:25:57;;;;;;;27.98;11.30;;;;;;;-145.82;100.00;61645.16;4965564;28;20039;-70
2022/01/14 06:28:23;;;;;;;24.20;11.90;;;;;;;-145.82;100.00;61645.16;4966413;28;20442;-69
2022/01/14 06:30:48;;;;;;;25.30;11.15;;;;;;;-145.82;100.00;61645.16;4965427;28;20049;-70
2022/01/14 06:33:14;;;;;;;31.95;12.18;;;;;;;-145.82;100.00;61645.16;4965418;28;20038;-70
2022/01/14 06:35:39;;;;;;;21.60;11.35;;;;;;;-145.82;100.00;61645.16;4966978;28;20544;-71
2022/01/14 06:38:05;;;;;;;18.70;10.70;;;;;;;-145.82;100.00;61645.16;4963623;28;20026;-70
2022/01/14 06:40:31;;;;;;;29.00;11.77;;;;;;;-145.82;100.00;61645.16;4966961;28;20035;-71
2022/01/14 06:42:57;;;;;;;28.92;12.63;;;;;;;-145.82;100.00;61645.16;4963439;28;20117;-69
2022/01/14 06:45:23;;;;;;;25.13;11.18;;;;;;;-145.82;100.00;61645.16;4965998;28;20049;-70
2022/01/14 06:47:50;;;;;;;32.00;11.18;;;;;;;-145.82;100.00;61645.16;4965828;28;20033;-72
2022/01/14 06:50:16;;;;;;;29.05;11.52;;;;;;;-145.82;100.00;61645.16;4967635;28;20030;-69
2022/01/14 06:52:42;;;;;;;27.70;12.00;;;;;;;-145.82;100.00;61645.16;4966031;28;20058;-70
2022/01/14 06:55:08;;;;;;;25.60;12.57;;;;;;;-145.82;100.00;61645.16;4964825;28;20062;-71
2022/01/14 06:57:35;;;;;;;23.58;11.60;;;;;;;-145.82;100.00;61645.16;4964251;28;20338;-71
2022/01/14 07:00:09;;;;;;;27.50;12.73;;;;;;;-145.82;100.00;61645.16;4967641;28;20038;-69
2022/01/14 07:02:34;;;;;;;23.88;11.27;;;;;;;-145.82;100.00;61645.16;4966684;28;20039;-70
2022/01/14 07:04:59;;;;;;;25.48;12.07;;;;;;;-145.82;100.00;61645.16;4964298;28;20099;-70
2022/01/14 07:07:25;;;;;;;25.65;11.25;;;;;;;-145.82;100.00;61645.16;4966193;28;20577;-69
2022/01/14 07:09:57;;;;;;;29.00;11.90;;;;;;;-145.82;100.00;61645.16;4964532;28;20036;-69
2022/01/14 07:12:31;;;;;;;25.65;12.15;;;;;;;-145.82;100.00;61645.16;4963331;28;20038;-69
2022/01/14 07:14:57;;;;;;;24.15;11.00;;;;;;;-145.82;100.00;61645.16;4964037;28;20565;-70
2022/01/14 07:17:24;;;;;;;29.50;12.48;;;;;;;-145.82;100.00;61645.16;4965432;28;20030;-69
2022/01/14 07:19:53;;;;;;;29.02;12.15;;;;;;;-145.82;100.00;61645.16;4966203;28;20109;-69
2022/01/14 07:22:19;;;;;;;30.58;13.07;;;;;;;-145.82;100.00;61645.16;4964981;28;20035;-69
2022/01/14 07:24:45;;;;;;;30.30;10.60;;;;;;;-145.82;100.00;61645.16;4964508;28;20038;-69
2022/01/14 07:27:11;;;;;;;24.83;12.00;;;;;;;-145.82;100.00;61645.16;4966020;28;20051;-69
2022/01/14 07:29:37;;;;;;;26.10;12.65;;;;;;;-145.82;100.00;61645.16;4964856;28;20039;-69
2022/01/14 07:32:03;;;;;;;28.27;12.15;;;;;;;-145.82;100.00;61645.16;4965390;28;20043;-70
2022/01/14 07:34:29;;;;;;;26.15;11.65;;;;;;;-145.82;100.00;61645.16;4966505;28;20073;-69
2022/01/14 07:36:54;;;;;;;25.48;12.95;;;;;;;-145.82;100.00;61645.16;4965129;28;20121;-70
2022/01/14 07:39:23;;;;;;;26.08;11.90;;;;;;;-145.82;100.00;61645.16;4964076;28;20034;-69
2022/01/14 07:41:53;;;;;;;23.48;10.55;;;;;;;-145.82;100.00;61645.16;4964898;28;20046;-69
2022/01/14 07:44:19;;;;;;;21.15;11.15;;;;;;;-145.82;100.00;61645.16;4961534;28;20050;-69
2022/01/14 07:46:47;;;;;;;20.42;10.77;;;;;;;-145.82;100.00;61645.16;4960216;28;20074;-70
2022/01/14 07:49:13;;;;;;;22.20;10.95;;;;;;;-145.82;100.00;61645.16;4962816;28;20651;-70
2022/01/14 07:51:39;;;;;;;26.63;10.35;;;;;;;-145.82;100.00;61645.16;4963636;28;20044;-69
2022/01/14 07:54:05;;;;;;;23.80;11.15;;;;;;;-145.82;100.00;61645.16;4962505;28;20035;-69
2022/01/14 07:56:45;;;;;;;24.58;10.45;;;;;;;-145.82;100.00;61645.16;4963843;28;20484;-71
2022/01/14 07:59:13;;;;;;;25.27;10.43;;;;;;;-145.82;100.00;61645.16;4961122;28;20046;-69
2022/01/14 08:01:40;;;;;;;19.83;8.55;;;;;;;-145.82;100.00;61645.16;4963090;28;20066;-71
2022/01/14 08:04:06;;;;;;;42.03;12.70;;;;;;;-145.82;100.00;61645.16;4962349;28;20042;-69
2022/01/14 08:06:38;;;;;;;38.88;14.57;;;;;;;-145.82;100.00;61645.16;4962154;28;20037;-69
2022/01/14 08:09:04;;;;;;;28.75;11.75;;;;;;;-145.82;100.00;61645.16;4963324;28;20038;-71
2022/01/14 08:11:29;;;;;;;30.17;11.57;;;;;;;-145.82;100.00;61645.16;4964051;28;20038;-69
2022/01/14 08:13:56;;;;;;;23.27;10.20;;;;;;;-145.82;100.00;61645.16;4962530;28;20046;-71
2022/01/14 08:16:21;;;;;;;28.20;11.65;;;;;;;-145.82;100.00;61645.16;4965150;28;20030;-69
2022/01/14 08:18:47;;;;;;;18.88;10.13;;;;;;;-145.82;100.00;61645.16;4964088;28;20041;-71
2022/01/14 08:21:14;;;;;;;21.90;8.57;;;;;;;-145.82;100.00;61645.16;4964232;28;20118;-69
2022/01/14 08:23:40;;;;;;;16.50;7.90;;;;;;;-145.82;100.00;61645.16;4962417;28;20062;-70
2022/01/14 08:26:05;;;;;;;24.83;9.43;;;;;;;-145.82;100.00;61645.16;4963691;28;20081;-69
2022/01/14 08:28:31;;;;;;;20.92;8.32;;;;;;;-145.82;100.00;61645.16;4963786;28;20485;-69
2022/01/14 08:30:56;;;;;;;19.48;8.80;;;;;;;-145.82;100.00;61645.16;4962320;28;20141;-70
2022/01/14 08:33:23;;;;;;;22.90;10.10;;;;;;;-145.82;100.00;61645.16;4979168;28;20043;-69
2022/01/14 08:35:48;;;;;;;22.48;9.43;;;;;;;-145.82;100.00;61645.16;4963400;28;20030;-69
2022/01/14 08:38:14;;;;;;;22.00;8.68;;;;;;;-145.82;100.00;61645.16;4961961;28;20041;-71
2022/01/14 08:40:40;;;;;;;21.05;7.90;;;;;;;-145.82;100.00;61645.16;4964132;28;20046;-69
2022/01/14 08:43:06;;;;;;;13.02;6.88;;;;;;;-145.82;100.00;61645.16;4963036;28;20361;-70
2022/01/14 08:45:32;;;;;;;18.98;7.38;;;;;;;-145.82;100.00;61645.16;4963928;28;20086;-68
2022/01/14 08:47:58;;;;;;;17.38;6.63;;;;;;;-145.82;100.00;61645.16;4962954;28;20102;-70
2022/01/14 08:50:35;;;;;;;20.92;7.85;;;;;;;-145.82;100.00;61645.16;4964342;28;20177;-69
2022/01/14 08:53:01;;;;;;;16.25;6.80;;;;;;;-145.82;100.00;61645.16;4962497;28;20051;-69
2022/01/14 08:55:27;;;;;;;16.08;7.07;;;;;;;-145.82;100.00;61645.16;4963339;28;20113;-70
2022/01/14 08:57:52;;;;;;;21.98;7.63;;;;;;;-145.82;100.00;61645.16;4965475;28;20041;-69
2022/01/14 09:00:20;;;;;;;16.05;6.07;;;;;;;-145.82;100.00;61645.16;4963182;28;20026;-68
2022/01/14 09:02:45;;;;;;;16.38;5.80;;;;;;;-145.82;100.00;61645.16;4963700;28;20092;-69
2022/01/14 09:05:11;;;;;;;21.67;7.05;;;;;;;-145.82;100.00;61645.16;4962644;28;20038;-69
2022/01/14 09:07:37;;;;;;;17.20;7.20;;;;;;;-145.82;100.00;61645.16;4961226;28;20968;-70
2022/01/14 09:10:05;;;;;;;19.02;7.05;;;;;;;-145.82;100.00;61645.16;4962912;28;20037;-70
2022/01/14 09:12:32;;;;;;;14.43;6.32;;;;;;;-145.82;100.00;61645.16;4963224;28;20439;-68
2022/01/14 09:14:59;;;;;;;16.25;5.68;;;;;;;-145.82;100.00;61645.16;4961777;28;20038;-69
2022/01/14 09:17:25;;;;;;;16.77;5.75;;;;;;;-145.82;100.00;61645.16;4961861;28;20458;-69
2022/01/14 09:19:50;;;;;;;12.32;4.88;;;;;;;-145.82;100.00;61645.16;4964304;28;20396;-70
2022/01/14 09:22:17;;;;;;;14.77;5.78;;;;;;;-145.82;100.00;61645.16;4957943;28;20465;-70
2022/01/14 09:24:45;;;;;;;12.05;5.45;;;;;;;-145.82;100.00;61645.16;4958974;28;20085;-69
2022/01/14 09:27:11;;;;;;;18.73;6.30;;;;;;;-145.82;100.00;61645.16;4960044;28;20132;-69
2022/01/14 09:29:37;;;;;;;15.60;6.07;;;;;;;-145.82;100.00;61645.16;4960676;28;20054;-71
2022/01/14 09:32:03;;;;;;;12.02;6.22;;;;;;;-145.82;100.00;61645.16;4959108;28;20133;-69
2022/01/14 09:34:28;;;;;;;9.15;5.13;;;;;;;-145.82;100.00;61645.16;4960868;28;20549;-71
2022/01/14 09:36:53;;;;;;;15.18;5.22;;;;;;;-145.82;100.00;61645.16;4961706;28;20038;-69
2022/01/14 09:39:20;;;;;;;12.65;5.40;;;;;;;-145.82;100.00;61645.16;4961568;28;20097;-71
2022/01/14 09:41:46;;;;;;;11.32;5.00;;;;;;;-145.82;100.00;61645.16;4962490;28;20417;-71
2022/01/14 09:44:16;;;;;;;14.68;5.30;;;;;;;-145.82;100.00;61645.16;4962613;28;20050;-69
2022/01/14 09:46:42;;;;;;;17.50;5.10;;;;;;;-145.82;100.00;61645.16;4961031;28;20043;-69
2022/01/14 09:49:07;;;;;;;14.38;5.35;;;;;;;-145.82;100.00;61645.16;4961629;28;20065;-71
2022/01/14 09:51:33;;;;;;;11.98;5.20;;;;;;;-145.82;100.00;61645.16;4962243;28;20026;-70
2022/01/14 09:53:58;;;;;;;12.02;5.82;;;;;;;-145.82;100.00;61645.16;4959180;28;20089;-69
2022/01/14 09:56:24;;;;;;;12.68;5.07;;;;;;;-145.82;100.00;61645.16;4963946;28;20347;-70
2022/01/14 09:58:51;;;;;;;11.77;4.70;;;;;;;-145.82;100.00;61645.16;4965792;28;20113;-70
2022/01/14 10:01:19;;;;;;;11.52;4.63;;;;;;;-145.82;100.00;61645.16;4964569;28;20039;-71
2022/01/14 10:03:47;;;;;;;15.35;6.03;;;;;;;-145.82;100.00;61645.16;4964115;28;20031;-72
2022/01/14 10:06:33;;;;;;;13.15;5.45;;;;;;;-145.82;100.00;61645.16;4978592;28;20047;-70
2022/01/14 10:09:25;;;;;;;14.70;6.20;;;;;;;-145.82;100.00;61645.16;4965305;28;20585;-70
2022/01/14 10:11:59;;;;;;;12.55;6.30;;;;;;;-145.82;100.00;61645.16;4965552;28;20326;-72
2022/01/14 10:14:25;;;;;;;18.05;6.45;;;;;;;-145.82;100.00;61645.16;4965046;28;20023;-71
2022/01/14 10:16:56;;;;;;;17.73;7.93;;;;;;;-145.82;100.00;61645.16;4964869;28;20351;-71
2022/01/14 10:19:24;;;;;;;22.27;7.35;;;;;;;-145.82;100.00;61645.16;4967806;28;20070;-70
2022/01/14 10:21:50;;;;;;;24.40;9.02;;;;;;;-145.82;100.00;61645.16;4965011;28;20069;-72
2022/01/14 10:24:16;;;;;;;22.55;8.02;;;;;;;-145.82;100.00;61645.16;4964283;28;20466;-71
2022/01/14 10:26:47;;;;;;;22.80;9.05;;;;;;;-145.82;100.00;61645.16;4963727;28;20049;-71
2022/01/14 10:29:12;;;;;;;18.67;7.72;;;;;;;-145.82;100.00;61645.16;4964581;28;20084;-70
2022/01/14 10:31:39;;;;;;;24.15;8.88;;;;;;;-145.82;100.00;61645.16;4964821;28;20114;-71
2022/01/14 10:34:11;;;;;;;20.58;8.95;;;;;;;-145.82;100.00;61645.16;4964931;28;20541;-71
2022/01/14 10:36:37;;;;;;;22.88;9.55;;;;;;;-145.82;100.00;61645.16;4964344;28;20043;-71
2022/01/14 10:39:18;;;;;;;25.25;9.70;;;;;;;-145.82;100.00;61645.16;4964579;28;20082;-72
2022/01/14 10:41:46;;;;;;;30.38;10.02;;;;;;;-145.82;100.00;61645.16;4964865;28;20034;-70
2022/01/14 10:44:38;;;;;;;21.77;8.52;;;;;;;-145.82;100.00;61645.16;4964280;28;20034;-70
2022/01/14 10:47:14;;;;;;;24.25;9.38;;;;;;;-145.82;100.00;61645.16;4963034;28;20650;-70
2022/01/14 10:49:42;;;;;;;25.65;9.85;;;;;;;-145.82;100.00;61645.16;4966269;28;20152;-70
2022/01/14 10:52:22;;;;;;;21.63;9.93;;;;;;;-145.82;100.00;61645.16;4964468;28;20027;-72
2022/01/14 10:54:55;;;;;;;20.20;9.68;;;;;;;-145.82;100.00;61645.16;4966875;28;20343;-70
2022/01/14 10:57:27;;;;;;;23.10;10.40;;;;;;;-145.82;100.00;61645.16;4966160;28;20041;-70
2022/01/14 10:59:55;;;;;;;25.33;10.15;;;;;;;-145.82;100.00;61645.16;4963853;28;20038;-72
2022/01/14 11:02:39;;;;;;;26.95;11.02;;;;;;;-145.82;100.00;61645.16;4964195;28;20102;-71
2022/01/14 11:05:12;;;;;;;23.95;11.05;;;;;;;-145.82;100.00;61645.16;4965803;28;20035;-71
2022/01/14 11:07:39;;;;;;;28.77;10.65;;;;;;;-145.82;100.00;61645.16;4963158;28;20393;-71
2022/01/14 11:10:17;;;;;;;24.77;9.98;;;;;;;-145.82;100.00;61645.16;4965149;28;20046;-70
2022/01/14 11:12:43;;;;;;;29.50;11.10;;;;;;;-145.82;100.00;61645.16;4964692;28;20314;-71
2022/01/14 11:15:10;;;;;;;23.10;11.10;;;;;;;-145.82;100.00;61645.16;4965261;28;20047;-72
2022/01/14 11:17:41;;;;;;;28.98;11.43;;;;;;;-145.82;100.00;61645.16;4966336;28;20030;-70
2022/01/14 11:20:09;;;;;;;24.73;10.30;;;;;;;-145.82;100.00;61645.16;4964741;28;20382;-70